createdAt,value
2023-06-07T00:02:03.859Z,15.11
2023-06-07T00:22:03.755Z,15.12
2023-06-07T00:42:03.422Z,15.13
2023-06-07T01:02:03.681Z,15.14
2023-06-07T01:22:03.629Z,15.14
2023-06-07T01:42:03.620Z,15.15
2023-06-07T02:22:03.505Z,15.16
2023-06-07T02:42:03.475Z,15.17
2023-06-07T03:02:03.445Z,15.17
2023-06-07T03:22:02.763Z,15.17
2023-06-07T03:42:03.363Z,15.17
2023-06-07T04:02:03.335Z,15.17
2023-06-07T04:22:03.339Z,15.18
2023-06-07T04:42:03.333Z,15.18
2023-06-07T05:02:03.224Z,15.18
2023-06-07T05:22:03.229Z,15.18
2023-06-07T05:42:03.195Z,15.18
2023-06-07T06:02:03.124Z,15.18
2023-06-07T06:22:02.816Z,15.18
2023-06-07T06:42:03.056Z,15.19
2023-06-07T07:02:03.046Z,15.19
2023-06-07T07:22:03.003Z,15.19
2023-06-07T08:22:02.868Z,15.2
2023-06-07T08:42:02.834Z,15.2
2023-06-07T09:02:02.548Z,15.2
2023-06-07T09:22:02.764Z,15.21
2023-06-07T10:02:02.082Z,15.21
2023-06-07T10:42:02.667Z,15.21
2023-06-07T11:22:02.547Z,15.22
2023-06-07T11:42:02.529Z,15.22
2023-06-07T12:02:02.549Z,15.22
2023-06-07T12:22:02.171Z,15.22
2023-06-07T12:42:02.411Z,15.22
2023-06-07T13:02:02.384Z,15.22
2023-06-07T13:22:02.340Z,15.22
2023-06-07T13:42:02.032Z,15.22
2023-06-07T14:02:02.327Z,15.22
2023-06-07T14:22:02.230Z,15.22
2023-06-07T14:42:02.190Z,15.22
2023-06-07T15:02:02.153Z,15.21
2023-06-07T15:22:01.492Z,15.22
2023-06-07T15:42:02.082Z,15.21
2023-06-07T16:02:02.089Z,15.21
2023-06-07T16:22:02.018Z,15.21
2023-06-07T16:42:01.968Z,15.21
2023-06-07T17:02:01.979Z,15.21
2023-06-07T17:22:01.893Z,15.21
2023-06-07T17:42:01.880Z,15.21
2023-06-07T20:42:04.212Z,15.22
2023-06-07T21:02:01.559Z,15.22
2023-06-07T21:22:01.457Z,15.22
2023-06-07T21:42:01.420Z,15.22
2023-06-07T22:02:01.409Z,15.22
2023-06-07T22:22:01.334Z,15.22
2023-06-07T23:22:01.251Z,15.23
2023-06-07T23:42:01.216Z,15.24
